METAR Data

Data at: 2005 UTC 18 Oct 2018

METAR for:KISP (Islip/Macarthur Arpt, NY, US)
Text:KISP 181956Z 30014G21KT 10SM FEW065 11/M07 A3028 RMK AO2 SLP254 T01061067
Temperature: 10.6°C ( 51°F)
Dewpoint: -6.7°C ( 20°F) [RH = 29%]
Pressure (altimeter):30.28 inches Hg (1025.5 mb) [Sea level pressure: 1025.4 mb]
Winds:from the WNW (300 degrees) at 16 MPH (14 knots; 7.2 m/s) gusting to 24 MPH (21 knots; 10.8 m/s)
Visibility:10 or more sm (16+ km)
Ceiling:at least 12,000 feet AGL
Clouds: few clouds at 6500 feet AGL